sensor_id;sensor_type;location;lat;lon;timestamp;pressure;altitude;pressure_sealevel;temperature;humidity
48364;BME280;34170;54.364;18.582;2023-06-14T00:01:41;100607.78;;;16.33;70.97
48364;BME280;34170;54.364;18.582;2023-06-14T00:04:13;100597.28;;;16.30;72.30
48364;BME280;34170;54.364;18.582;2023-06-14T00:06:41;100608.06;;;16.38;72.09
48364;BME280;34170;54.364;18.582;2023-06-14T00:09:08;100585.06;;;16.26;72.87
48364;BME280;34170;54.364;18.582;2023-06-14T00:11:36;100593.91;;;16.19;73.20
48364;BME280;34170;54.364;18.582;2023-06-14T00:14:04;100598.81;;;16.24;72.74
48364;BME280;34170;54.364;18.582;2023-06-14T00:16:32;100596.94;;;16.25;72.71
48364;BME280;34170;54.364;18.582;2023-06-14T00:19:03;100597.63;;;16.18;72.48
48364;BME280;34170;54.364;18.582;2023-06-14T00:21:32;100598.00;;;16.15;72.59
48364;BME280;34170;54.364;18.582;2023-06-14T00:24:00;100597.63;;;16.18;72.89
48364;BME280;34170;54.364;18.582;2023-06-14T00:26:28;100584.03;;;16.27;72.67
48364;BME280;34170;54.364;18.582;2023-06-14T00:28:56;100577.63;;;16.19;73.02
48364;BME280;34170;54.364;18.582;2023-06-14T00:31:26;100596.72;;;16.34;73.04
48364;BME280;34170;54.364;18.582;2023-06-14T00:33:54;100589.13;;;16.30;73.65
48364;BME280;34170;54.364;18.582;2023-06-14T00:36:21;100581.81;;;16.30;73.48
48364;BME280;34170;54.364;18.582;2023-06-14T00:38:49;100590.75;;;16.47;73.04
48364;BME280;34170;54.364;18.582;2023-06-14T00:41:16;100594.00;;;16.43;73.89
48364;BME280;34170;54.364;18.582;2023-06-14T00:43:44;100590.28;;;16.44;73.72
48364;BME280;34170;54.364;18.582;2023-06-14T00:46:12;100579.25;;;16.37;74.40
48364;BME280;34170;54.364;18.582;2023-06-14T00:48:39;100584.34;;;16.40;74.47
48364;BME280;34170;54.364;18.582;2023-06-14T00:51:07;100592.13;;;16.43;74.51
48364;BME280;34170;54.364;18.582;2023-06-14T00:53:35;100583.47;;;16.39;74.55
48364;BME280;34170;54.364;18.582;2023-06-14T00:56:03;100592.69;;;16.22;75.75
48364;BME280;34170;54.364;18.582;2023-06-14T00:58:32;100594.06;;;16.18;76.40
48364;BME280;34170;54.364;18.582;2023-06-14T01:00:59;100581.06;;;16.05;77.55
48364;BME280;34170;54.364;18.582;2023-06-14T01:03:27;100590.03;;;16.14;77.64
48364;BME280;34170;54.364;18.582;2023-06-14T01:06:05;100590.53;;;16.17;77.90
48364;BME280;34170;54.364;18.582;2023-06-14T01:08:51;100585.09;;;16.17;78.40
48364;BME280;34170;54.364;18.582;2023-06-14T01:11:33;100582.78;;;16.06;79.20
48364;BME280;34170;54.364;18.582;2023-06-14T01:14:05;100594.78;;;16.12;79.97
48364;BME280;34170;54.364;18.582;2023-06-14T01:16:33;100583.56;;;16.15;79.67
48364;BME280;34170;54.364;18.582;2023-06-14T01:19:03;100569.06;;;15.99;80.44
48364;BME280;34170;54.364;18.582;2023-06-14T01:21:32;100583.06;;;16.11;80.59
48364;BME280;34170;54.364;18.582;2023-06-14T01:24:09;100578.00;;;16.08;81.03
48364;BME280;34170;54.364;18.582;2023-06-14T01:26:39;100575.16;;;16.01;81.46
48364;BME280;34170;54.364;18.582;2023-06-14T01:29:14;100574.66;;;15.98;81.53
48364;BME280;34170;54.364;18.582;2023-06-14T01:31:45;100572.75;;;16.07;81.44
48364;BME280;34170;54.364;18.582;2023-06-14T01:34:13;100559.22;;;15.98;81.84
48364;BME280;34170;54.364;18.582;2023-06-14T01:36:43;100565.84;;;15.96;82.20
48364;BME280;34170;54.364;18.582;2023-06-14T01:39:14;100563.81;;;15.90;82.74
48364;BME280;34170;54.364;18.582;2023-06-14T01:41:42;100571.94;;;15.90;83.09
48364;BME280;34170;54.364;18.582;2023-06-14T01:44:12;100557.91;;;15.78;83.86
48364;BME280;34170;54.364;18.582;2023-06-14T01:46:42;100563.50;;;15.85;83.34
48364;BME280;34170;54.364;18.582;2023-06-14T01:49:11;100573.47;;;15.92;83.52
48364;BME280;34170;54.364;18.582;2023-06-14T01:51:38;100568.22;;;15.91;83.67
48364;BME280;34170;54.364;18.582;2023-06-14T01:54:08;100577.38;;;15.90;83.68
48364;BME280;34170;54.364;18.582;2023-06-14T01:56:37;100565.19;;;15.86;84.48
48364;BME280;34170;54.364;18.582;2023-06-14T01:59:05;100567.00;;;15.93;84.13
48364;BME280;34170;54.364;18.582;2023-06-14T02:01:33;100566.50;;;15.98;83.77
48364;BME280;34170;54.364;18.582;2023-06-14T02:04:01;100563.28;;;15.94;84.61
48364;BME280;34170;54.364;18.582;2023-06-14T02:06:29;100562.59;;;16.00;84.58
48364;BME280;34170;54.364;18.582;2023-06-14T02:08:56;100560.03;;;16.07;84.33
48364;BME280;34170;54.364;18.582;2023-06-14T02:11:28;100564.47;;;16.00;84.93
48364;BME280;34170;54.364;18.582;2023-06-14T02:13:56;100558.69;;;16.03;84.65
48364;BME280;34170;54.364;18.582;2023-06-14T02:16:23;100550.22;;;15.98;84.89
48364;BME280;34170;54.364;18.582;2023-06-14T02:18:52;100559.03;;;16.00;85.55
48364;BME280;34170;54.364;18.582;2023-06-14T02:21:20;100565.13;;;16.10;85.47
48364;BME280;34170;54.364;18.582;2023-06-14T02:23:47;100557.66;;;16.04;85.65
48364;BME280;34170;54.364;18.582;2023-06-14T02:26:15;100560.38;;;16.04;85.69
48364;BME280;34170;54.364;18.582;2023-06-14T02:28:43;100568.06;;;15.92;86.56
48364;BME280;34170;54.364;18.582;2023-06-14T02:31:11;100564.63;;;16.07;86.71
48364;BME280;34170;54.364;18.582;2023-06-14T02:33:38;100566.94;;;16.26;86.17
48364;BME280;34170;54.364;18.582;2023-06-14T02:36:07;100552.50;;;16.26;85.97
48364;BME280;34170;54.364;18.582;2023-06-14T02:38:34;100565.69;;;16.37;85.67
48364;BME280;34170;54.364;18.582;2023-06-14T02:41:02;100563.13;;;16.44;85.73
48364;BME280;34170;54.364;18.582;2023-06-14T02:43:30;100571.00;;;16.62;85.40
48364;BME280;34170;54.364;18.582;2023-06-14T02:45:58;100560.41;;;16.75;84.20
48364;BME280;34170;54.364;18.582;2023-06-14T02:48:27;100557.25;;;16.94;83.57
48364;BME280;34170;54.364;18.582;2023-06-14T02:50:55;100559.13;;;16.94;82.79
48364;BME280;34170;54.364;18.582;2023-06-14T02:53:23;100563.69;;;16.93;83.92
48364;BME280;34170;54.364;18.582;2023-06-14T02:55:51;100566.81;;;17.13;82.64
48364;BME280;34170;54.364;18.582;2023-06-14T02:58:20;100561.28;;;16.99;82.93
48364;BME280;34170;54.364;18.582;2023-06-14T03:00:48;100555.06;;;17.13;82.78
48364;BME280;34170;54.364;18.582;2023-06-14T03:03:15;100563.38;;;17.34;81.22
48364;BME280;34170;54.364;18.582;2023-06-14T03:05:51;100560.59;;;17.43;81.16
48364;BME280;34170;54.364;18.582;2023-06-14T03:08:23;100552.94;;;17.46;80.50
48364;BME280;34170;54.364;18.582;2023-06-14T03:10:56;100557.72;;;17.59;79.92
48364;BME280;34170;54.364;18.582;2023-06-14T03:13:24;100555.25;;;17.72;79.32
48364;BME280;34170;54.364;18.582;2023-06-14T03:15:53;100562.88;;;17.92;78.29
48364;BME280;34170;54.364;18.582;2023-06-14T03:18:22;100575.91;;;17.97;78.11
48364;BME280;34170;54.364;18.582;2023-06-14T03:20:54;100574.50;;;18.01;79.08
48364;BME280;34170;54.364;18.582;2023-06-14T03:23:26;100577.59;;;18.42;76.74
48364;BME280;34170;54.364;18.582;2023-06-14T03:25:54;100575.63;;;18.51;75.05
48364;BME280;34170;54.364;18.582;2023-06-14T03:28:23;100578.19;;;18.74;73.71
48364;BME280;34170;54.364;18.582;2023-06-14T03:30:52;100579.50;;;18.78;73.30
48364;BME280;34170;54.364;18.582;2023-06-14T03:33:21;100580.31;;;18.94;73.50
48364;BME280;34170;54.364;18.582;2023-06-14T03:35:49;100572.53;;;19.55;70.10
48364;BME280;34170;54.364;18.582;2023-06-14T03:38:17;100582.19;;;20.56;65.05
48364;BME280;34170;54.364;18.582;2023-06-14T03:40:45;100582.00;;;22.13;58.69
48364;BME280;34170;54.364;18.582;2023-06-14T03:43:14;100575.78;;;22.51;52.81
48364;BME280;34170;54.364;18.582;2023-06-14T03:45:42;100575.69;;;21.85;55.30
48364;BME280;34170;54.364;18.582;2023-06-14T03:48:09;100574.59;;;20.93;59.06
48364;BME280;34170;54.364;18.582;2023-06-14T03:50:38;100584.34;;;20.26;62.47
48364;BME280;34170;54.364;18.582;2023-06-14T03:53:06;100587.06;;;19.62;66.32
48364;BME280;34170;54.364;18.582;2023-06-14T03:55:36;100582.28;;;19.43;68.10
48364;BME280;34170;54.364;18.582;2023-06-14T03:58:32;100583.50;;;19.19;70.01
48364;BME280;34170;54.364;18.582;2023-06-14T04:01:00;100584.84;;;18.86;72.36
48364;BME280;34170;54.364;18.582;2023-06-14T04:03:30;100586.28;;;18.82;72.42
48364;BME280;34170;54.364;18.582;2023-06-14T04:06:00;100583.00;;;18.87;72.84
48364;BME280;34170;54.364;18.582;2023-06-14T04:08:28;100579.03;;;18.90;73.07
48364;BME280;34170;54.364;18.582;2023-06-14T04:10:58;100588.69;;;18.77;72.99
48364;BME280;34170;54.364;18.582;2023-06-14T04:13:26;100590.50;;;18.70;74.41
48364;BME280;34170;54.364;18.582;2023-06-14T04:15:54;100598.47;;;18.86;74.08
48364;BME280;34170;54.364;18.582;2023-06-14T04:18:30;100594.53;;;18.74;74.77
48364;BME280;34170;54.364;18.582;2023-06-14T04:20:58;100577.09;;;18.83;73.61
48364;BME280;34170;54.364;18.582;2023-06-14T04:23:26;100578.91;;;18.98;73.47
48364;BME280;34170;54.364;18.582;2023-06-14T04:25:56;100583.97;;;19.22;72.58
48364;BME280;34170;54.364;18.582;2023-06-14T04:28:29;100586.16;;;19.77;68.45
48364;BME280;34170;54.364;18.582;2023-06-14T04:31:00;100590.16;;;19.81;69.29
48364;BME280;34170;54.364;18.582;2023-06-14T04:33:31;100587.91;;;20.26;66.98
48364;BME280;34170;54.364;18.582;2023-06-14T04:35:59;100589.28;;;20.44;65.68
48364;BME280;34170;54.364;18.582;2023-06-14T04:38:27;100595.25;;;20.61;64.57
48364;BME280;34170;54.364;18.582;2023-06-14T04:40:57;100594.09;;;20.42;64.74
48364;BME280;34170;54.364;18.582;2023-06-14T04:43:29;100586.75;;;20.42;65.56
48364;BME280;34170;54.364;18.582;2023-06-14T04:45:57;100597.56;;;20.57;64.90
48364;BME280;34170;54.364;18.582;2023-06-14T04:48:26;100602.16;;;21.11;63.04
48364;BME280;34170;54.364;18.582;2023-06-14T04:50:54;100593.97;;;21.18;61.55
48364;BME280;34170;54.364;18.582;2023-06-14T04:53:23;100591.28;;;21.45;60.44
48364;BME280;34170;54.364;18.582;2023-06-14T04:55:54;100590.41;;;22.18;57.84
48364;BME280;34170;54.364;18.582;2023-06-14T04:58:22;100594.97;;;22.44;57.70
48364;BME280;34170;54.364;18.582;2023-06-14T05:00:50;100606.22;;;22.81;54.74
48364;BME280;34170;54.364;18.582;2023-06-14T05:03:18;100599.78;;;23.00;53.24
48364;BME280;34170;54.364;18.582;2023-06-14T05:05:49;100594.91;;;22.64;54.95
48364;BME280;34170;54.364;18.582;2023-06-14T05:08:17;100604.81;;;22.65;54.78
48364;BME280;34170;54.364;18.582;2023-06-14T05:10:46;100611.44;;;23.34;52.58
48364;BME280;34170;54.364;18.582;2023-06-14T05:13:13;100607.53;;;23.17;52.01
48364;BME280;34170;54.364;18.582;2023-06-14T05:15:41;100599.13;;;23.94;50.67
48364;BME280;34170;54.364;18.582;2023-06-14T05:18:10;100601.53;;;24.46;47.00
48364;BME280;34170;54.364;18.582;2023-06-14T05:20:38;100609.56;;;24.84;46.91
48364;BME280;34170;54.364;18.582;2023-06-14T05:23:05;100598.34;;;27.10;40.66
48364;BME280;34170;54.364;18.582;2023-06-14T05:25:33;100597.13;;;27.98;38.29
48364;BME280;34170;54.364;18.582;2023-06-14T05:28:01;100592.00;;;27.55;38.37
48364;BME280;34170;54.364;18.582;2023-06-14T05:30:29;100608.72;;;27.49;39.35
48364;BME280;34170;54.364;18.582;2023-06-14T05:32:57;100606.28;;;27.52;39.40
48364;BME280;34170;54.364;18.582;2023-06-14T05:35:26;100602.38;;;26.62;40.14
48364;BME280;34170;54.364;18.582;2023-06-14T05:37:54;100598.97;;;25.96;41.48
48364;BME280;34170;54.364;18.582;2023-06-14T05:40:21;100601.91;;;25.47;42.35
48364;BME280;34170;54.364;18.582;2023-06-14T05:42:49;100605.34;;;25.12;42.77
48364;BME280;34170;54.364;18.582;2023-06-14T05:45:17;100605.72;;;24.85;43.83
48364;BME280;34170;54.364;18.582;2023-06-14T05:47:45;100607.41;;;24.49;44.38
48364;BME280;34170;54.364;18.582;2023-06-14T05:50:12;100611.22;;;24.48;43.97
48364;BME280;34170;54.364;18.582;2023-06-14T05:52:40;100607.28;;;24.63;43.62
48364;BME280;34170;54.364;18.582;2023-06-14T05:55:08;100605.66;;;25.04;42.36
48364;BME280;34170;54.364;18.582;2023-06-14T05:57:36;100609.00;;;25.24;41.53
48364;BME280;34170;54.364;18.582;2023-06-14T06:00:04;100614.34;;;25.49;42.13
48364;BME280;34170;54.364;18.582;2023-06-14T06:02:38;100622.19;;;25.88;41.38
48364;BME280;34170;54.364;18.582;2023-06-14T06:05:06;100614.25;;;25.68;41.35
48364;BME280;34170;54.364;18.582;2023-06-14T06:07:34;100615.56;;;26.60;40.50
48364;BME280;34170;54.364;18.582;2023-06-14T06:10:04;100628.22;;;27.59;37.59
48364;BME280;34170;54.364;18.582;2023-06-14T06:12:33;100619.34;;;28.47;35.13
48364;BME280;34170;54.364;18.582;2023-06-14T06:15:01;100631.78;;;29.11;34.17
48364;BME280;34170;54.364;18.582;2023-06-14T06:17:28;100635.50;;;31.81;31.66
48364;BME280;34170;54.364;18.582;2023-06-14T06:20:16;100634.66;;;33.81;27.98
48364;BME280;34170;54.364;18.582;2023-06-14T06:22:44;100639.91;;;34.65;26.43
48364;BME280;34170;54.364;18.582;2023-06-14T06:25:12;100641.47;;;35.20;24.98
48364;BME280;34170;54.364;18.582;2023-06-14T06:27:42;100645.94;;;37.98;21.57
48364;BME280;34170;54.364;18.582;2023-06-14T06:30:10;100638.44;;;36.61;22.22
48364;BME280;34170;54.364;18.582;2023-06-14T06:32:38;100638.44;;;36.61;22.22
48364;BME280;34170;54.364;18.582;2023-06-14T06:35:06;100645.44;;;31.25;28.88
48364;BME280;34170;54.364;18.582;2023-06-14T06:37:36;100642.25;;;34.05;24.77
48364;BME280;34170;54.364;18.582;2023-06-14T06:40:04;100640.75;;;36.13;22.57
48364;BME280;34170;54.364;18.582;2023-06-14T06:42:33;100643.53;;;36.73;21.65
48364;BME280;34170;54.364;18.582;2023-06-14T06:45:04;100640.63;;;38.59;20.38
48364;BME280;34170;54.364;18.582;2023-06-14T06:47:33;100653.50;;;39.26;19.16
48364;BME280;34170;54.364;18.582;2023-06-14T06:50:01;100659.47;;;41.23;17.30
48364;BME280;34170;54.364;18.582;2023-06-14T06:52:30;100661.44;;;41.98;16.15
48364;BME280;34170;54.364;18.582;2023-06-14T06:54:58;100661.91;;;40.82;17.07
48364;BME280;34170;54.364;18.582;2023-06-14T06:57:25;100652.06;;;37.77;19.43
48364;BME280;34170;54.364;18.582;2023-06-14T06:59:53;100655.94;;;34.30;22.57
48364;BME280;34170;54.364;18.582;2023-06-14T07:02:21;100650.78;;;34.43;23.27
48364;BME280;34170;54.364;18.582;2023-06-14T07:04:49;100644.44;;;34.61;23.02
48364;BME280;34170;54.364;18.582;2023-06-14T07:07:17;100636.63;;;33.41;24.86
48364;BME280;34170;54.364;18.582;2023-06-14T07:09:45;100650.66;;;32.71;25.38
48364;BME280;34170;54.364;18.582;2023-06-14T07:12:13;100638.84;;;31.67;26.63
48364;BME280;34170;54.364;18.582;2023-06-14T07:14:40;100646.47;;;30.35;28.38
48364;BME280;34170;54.364;18.582;2023-06-14T07:17:08;100646.31;;;29.77;29.41
48364;BME280;34170;54.364;18.582;2023-06-14T07:19:37;100648.25;;;31.35;27.57
48364;BME280;34170;54.364;18.582;2023-06-14T07:22:08;100654.88;;;32.63;25.48
48364;BME280;34170;54.364;18.582;2023-06-14T07:24:36;100657.94;;;32.51;25.51
48364;BME280;34170;54.364;18.582;2023-06-14T07:27:03;100657.31;;;33.30;25.99
48364;BME280;34170;54.364;18.582;2023-06-14T07:29:31;100660.00;;;30.85;27.76
48364;BME280;34170;54.364;18.582;2023-06-14T07:31:59;100648.56;;;29.26;29.29
48364;BME280;34170;54.364;18.582;2023-06-14T07:34:27;100651.53;;;27.97;32.22
48364;BME280;34170;54.364;18.582;2023-06-14T07:36:55;100656.78;;;28.32;31.29
48364;BME280;34170;54.364;18.582;2023-06-14T07:39:23;100646.34;;;28.79;30.68
48364;BME280;34170;54.364;18.582;2023-06-14T07:41:50;100661.22;;;27.66;32.08
48364;BME280;34170;54.364;18.582;2023-06-14T07:44:18;100650.84;;;27.73;31.04
48364;BME280;34170;54.364;18.582;2023-06-14T07:46:46;100653.00;;;26.96;33.15
48364;BME280;34170;54.364;18.582;2023-06-14T07:49:16;100657.41;;;27.38;32.74
48364;BME280;34170;54.364;18.582;2023-06-14T07:51:44;100660.66;;;27.06;33.28
48364;BME280;34170;54.364;18.582;2023-06-14T07:54:14;100659.63;;;27.70;32.66
48364;BME280;34170;54.364;18.582;2023-06-14T07:56:42;100652.28;;;28.48;31.54
48364;BME280;34170;54.364;18.582;2023-06-14T07:59:11;100658.19;;;28.96;30.38
48364;BME280;34170;54.364;18.582;2023-06-14T08:01:38;100661.28;;;28.78;29.11
48364;BME280;34170;54.364;18.582;2023-06-14T08:04:07;100647.59;;;28.10;31.05
48364;BME280;34170;54.364;18.582;2023-06-14T08:06:34;100651.88;;;28.18;31.44
48364;BME280;34170;54.364;18.582;2023-06-14T08:09:02;100657.47;;;29.06;28.99
48364;BME280;34170;54.364;18.582;2023-06-14T08:11:30;100658.13;;;29.40;29.40
48364;BME280;34170;54.364;18.582;2023-06-14T08:13:58;100656.13;;;29.63;28.90
48364;BME280;34170;54.364;18.582;2023-06-14T08:16:26;100665.22;;;29.31;28.48
48364;BME280;34170;54.364;18.582;2023-06-14T08:18:55;100664.72;;;29.34;29.57
48364;BME280;34170;54.364;18.582;2023-06-14T08:21:22;100661.34;;;29.05;29.93
48364;BME280;34170;54.364;18.582;2023-06-14T08:23:51;100650.84;;;28.85;30.10
48364;BME280;34170;54.364;18.582;2023-06-14T08:26:20;100661.84;;;28.02;31.61
48364;BME280;34170;54.364;18.582;2023-06-14T08:28:49;100678.06;;;28.15;29.89
48364;BME280;34170;54.364;18.582;2023-06-14T08:31:16;100677.41;;;27.28;30.81
48364;BME280;34170;54.364;18.582;2023-06-14T08:33:44;100670.06;;;27.22;31.19
48364;BME280;34170;54.364;18.582;2023-06-14T08:36:13;100665.94;;;26.08;32.79
48364;BME280;34170;54.364;18.582;2023-06-14T08:38:41;100663.56;;;24.60;34.89
48364;BME280;34170;54.364;18.582;2023-06-14T08:41:11;100659.91;;;25.15;35.16
48364;BME280;34170;54.364;18.582;2023-06-14T08:43:41;100663.25;;;24.87;35.26
48364;BME280;34170;54.364;18.582;2023-06-14T08:46:09;100668.06;;;25.40;35.00
48364;BME280;34170;54.364;18.582;2023-06-14T08:48:39;100660.81;;;25.69;34.79
48364;BME280;34170;54.364;18.582;2023-06-14T08:51:07;100659.44;;;26.50;34.23
48364;BME280;34170;54.364;18.582;2023-06-14T08:53:37;100664.81;;;27.49;31.93
48364;BME280;34170;54.364;18.582;2023-06-14T08:56:09;100664.22;;;27.81;31.63
48364;BME280;34170;54.364;18.582;2023-06-14T08:58:44;100661.66;;;28.64;29.78
48364;BME280;34170;54.364;18.582;2023-06-14T09:01:12;100663.78;;;28.01;30.76
48364;BME280;34170;54.364;18.582;2023-06-14T09:03:42;100674.47;;;27.06;33.08
48364;BME280;34170;54.364;18.582;2023-06-14T09:06:10;100660.63;;;25.83;34.52
48364;BME280;34170;54.364;18.582;2023-06-14T09:08:45;100664.06;;;25.24;36.51
48364;BME280;34170;54.364;18.582;2023-06-14T09:11:14;100661.22;;;25.12;35.85
48364;BME280;34170;54.364;18.582;2023-06-14T09:13:42;100657.59;;;25.73;35.44
48364;BME280;34170;54.364;18.582;2023-06-14T09:16:10;100660.31;;;26.38;34.13
48364;BME280;34170;54.364;18.582;2023-06-14T09:18:40;100659.78;;;26.77;34.02
48364;BME280;34170;54.364;18.582;2023-06-14T09:21:11;100651.06;;;27.26;32.97
48364;BME280;34170;54.364;18.582;2023-06-14T09:23:41;100661.72;;;27.63;32.88
48364;BME280;34170;54.364;18.582;2023-06-14T09:26:11;100660.06;;;26.28;33.86
48364;BME280;34170;54.364;18.582;2023-06-14T09:28:48;100658.41;;;26.15;33.23
48364;BME280;34170;54.364;18.582;2023-06-14T09:31:17;100660.78;;;26.12;34.78
48364;BME280;34170;54.364;18.582;2023-06-14T09:33:47;100663.44;;;27.35;33.22
48364;BME280;34170;54.364;18.582;2023-06-14T09:36:17;100655.63;;;28.67;30.64
48364;BME280;34170;54.364;18.582;2023-06-14T09:38:55;100660.41;;;29.76;29.26
48364;BME280;34170;54.364;18.582;2023-06-14T09:41:37;100653.16;;;30.39;28.51
48364;BME280;34170;54.364;18.582;2023-06-14T09:44:07;100662.44;;;31.54;26.70
48364;BME280;34170;54.364;18.582;2023-06-14T09:46:40;100657.19;;;30.74;27.40
48364;BME280;34170;54.364;18.582;2023-06-14T09:49:08;100654.84;;;30.51;26.02
48364;BME280;34170;54.364;18.582;2023-06-14T09:51:43;100650.34;;;30.92;26.12
48364;BME280;34170;54.364;18.582;2023-06-14T09:54:16;100658.53;;;31.45;26.23
48364;BME280;34170;54.364;18.582;2023-06-14T09:56:47;100657.09;;;32.51;25.51
48364;BME280;34170;54.364;18.582;2023-06-14T09:59:20;100654.78;;;30.35;28.21
48364;BME280;34170;54.364;18.582;2023-06-14T10:01:49;100652.59;;;31.01;27.86
48364;BME280;34170;54.364;18.582;2023-06-14T10:04:20;100649.31;;;31.19;27.27
48364;BME280;34170;54.364;18.582;2023-06-14T10:06:50;100652.50;;;32.91;25.65
48364;BME280;34170;54.364;18.582;2023-06-14T10:09:21;100658.28;;;31.72;26.46
48364;BME280;34170;54.364;18.582;2023-06-14T10:11:50;100644.41;;;29.01;30.38
48364;BME280;34170;54.364;18.582;2023-06-14T10:14:18;100645.34;;;28.46;30.56
48364;BME280;34170;54.364;18.582;2023-06-14T10:16:56;100642.16;;;28.54;31.16
48364;BME280;34170;54.364;18.582;2023-06-14T10:19:42;100639.41;;;29.53;29.91
48364;BME280;34170;54.364;18.582;2023-06-14T10:22:19;100643.09;;;28.43;31.61
48364;BME280;34170;54.364;18.582;2023-06-14T10:24:50;100651.16;;;27.43;32.80
48364;BME280;34170;54.364;18.582;2023-06-14T10:27:18;100647.13;;;26.29;33.54
48364;BME280;34170;54.364;18.582;2023-06-14T10:32:25;100627.44;;;28.70;29.73
48364;BME280;34170;54.364;18.582;2023-06-14T10:34:57;100639.09;;;28.73;29.99
48364;BME280;34170;54.364;18.582;2023-06-14T10:37:25;100624.66;;;27.92;31.15
48364;BME280;34170;54.364;18.582;2023-06-14T10:39:53;100629.94;;;28.33;30.66
48364;BME280;34170;54.364;18.582;2023-06-14T10:42:21;100620.31;;;27.80;32.23
48364;BME280;34170;54.364;18.582;2023-06-14T10:49:57;100624.47;;;30.29;30.49
48364;BME280;34170;54.364;18.582;2023-06-14T10:52:33;100630.88;;;29.92;30.23
48364;BME280;34170;54.364;18.582;2023-06-14T10:55:11;100633.53;;;30.51;29.36
48364;BME280;34170;54.364;18.582;2023-06-14T11:00:20;100626.91;;;28.96;31.82
48364;BME280;34170;54.364;18.582;2023-06-14T11:05:57;100628.75;;;29.12;31.93
48364;BME280;34170;54.364;18.582;2023-06-14T11:11:22;100636.09;;;27.22;35.02
48364;BME280;34170;54.364;18.582;2023-06-14T11:13:51;100622.53;;;26.39;37.50
48364;BME280;34170;54.364;18.582;2023-06-14T11:16:26;100617.38;;;26.95;35.79
48364;BME280;34170;54.364;18.582;2023-06-14T11:18:55;100619.63;;;26.57;35.69
48364;BME280;34170;54.364;18.582;2023-06-14T11:21:24;100609.19;;;26.71;35.92
48364;BME280;34170;54.364;18.582;2023-06-14T11:23:52;100608.97;;;25.66;35.78
48364;BME280;34170;54.364;18.582;2023-06-14T11:26:29;100615.91;;;24.66;39.27
48364;BME280;34170;54.364;18.582;2023-06-14T11:28:58;100613.53;;;24.70;40.20
48364;BME280;34170;54.364;18.582;2023-06-14T11:31:28;100620.19;;;24.81;40.00
48364;BME280;34170;54.364;18.582;2023-06-14T11:34:00;100625.22;;;25.14;38.54
48364;BME280;34170;54.364;18.582;2023-06-14T11:36:33;100627.47;;;25.36;39.96
48364;BME280;34170;54.364;18.582;2023-06-14T11:39:06;100629.69;;;25.69;39.34
48364;BME280;34170;54.364;18.582;2023-06-14T11:41:44;100620.19;;;24.00;41.93
48364;BME280;34170;54.364;18.582;2023-06-14T11:44:12;100623.88;;;24.56;42.85
48364;BME280;34170;54.364;18.582;2023-06-14T11:46:40;100604.06;;;24.84;41.46
48364;BME280;34170;54.364;18.582;2023-06-14T11:49:08;100610.13;;;24.56;42.50
48364;BME280;34170;54.364;18.582;2023-06-14T11:51:37;100611.81;;;25.06;41.67
48364;BME280;34170;54.364;18.582;2023-06-14T11:54:06;100621.72;;;24.14;38.20
48364;BME280;34170;54.364;18.582;2023-06-14T11:56:36;100611.59;;;24.15;42.46
48364;BME280;34170;54.364;18.582;2023-06-14T11:59:04;100615.66;;;24.31;41.17
48364;BME280;34170;54.364;18.582;2023-06-14T12:01:36;100602.81;;;24.06;41.13
48364;BME280;34170;54.364;18.582;2023-06-14T12:04:06;100617.97;;;23.33;44.36
48364;BME280;34170;54.364;18.582;2023-06-14T12:06:34;100605.22;;;23.14;45.57
48364;BME280;34170;54.364;18.582;2023-06-14T12:09:07;100603.94;;;23.73;45.87
48364;BME280;34170;54.364;18.582;2023-06-14T12:11:41;100598.97;;;24.07;43.95
48364;BME280;34170;54.364;18.582;2023-06-14T12:14:09;100602.53;;;23.89;40.08
48364;BME280;34170;54.364;18.582;2023-06-14T12:16:40;100594.19;;;24.03;41.73
48364;BME280;34170;54.364;18.582;2023-06-14T12:19:11;100613.03;;;23.74;41.78
48364;BME280;34170;54.364;18.582;2023-06-14T12:21:40;100596.56;;;23.99;39.41
48364;BME280;34170;54.364;18.582;2023-06-14T12:24:08;100602.03;;;23.74;40.67
48364;BME280;34170;54.364;18.582;2023-06-14T12:26:40;100591.81;;;23.31;41.88
48364;BME280;34170;54.364;18.582;2023-06-14T12:29:08;100594.75;;;23.61;39.02
48364;BME280;34170;54.364;18.582;2023-06-14T12:31:36;100594.38;;;23.83;40.70
48364;BME280;34170;54.364;18.582;2023-06-14T12:34:04;100592.53;;;24.20;40.08
48364;BME280;34170;54.364;18.582;2023-06-14T12:36:32;100597.00;;;23.71;40.19
48364;BME280;34170;54.364;18.582;2023-06-14T12:38:59;100587.69;;;23.72;39.81
48364;BME280;34170;54.364;18.582;2023-06-14T12:41:27;100606.72;;;23.41;41.13
48364;BME280;34170;54.364;18.582;2023-06-14T12:43:55;100596.59;;;23.67;40.32
48364;BME280;34170;54.364;18.582;2023-06-14T12:46:25;100594.13;;;24.09;40.89
48364;BME280;34170;54.364;18.582;2023-06-14T12:48:53;100595.44;;;24.25;41.60
48364;BME280;34170;54.364;18.582;2023-06-14T12:51:20;100595.56;;;23.93;40.64
48364;BME280;34170;54.364;18.582;2023-06-14T12:53:51;100591.94;;;24.55;39.87
48364;BME280;34170;54.364;18.582;2023-06-14T12:56:19;100601.38;;;24.41;41.56
48364;BME280;34170;54.364;18.582;2023-06-14T12:58:50;100598.75;;;24.09;42.44
48364;BME280;34170;54.364;18.582;2023-06-14T13:01:18;100598.03;;;24.57;42.15
48364;BME280;34170;54.364;18.582;2023-06-14T13:03:47;100594.22;;;24.58;40.84
48364;BME280;34170;54.364;18.582;2023-06-14T13:06:15;100602.69;;;24.75;40.98
48364;BME280;34170;54.364;18.582;2023-06-14T13:08:43;100584.81;;;24.66;42.69